Bei Facebook empfehlenBei Twitter postenGoogle plusPinterest

Das Wetter im Erzgebirge am 26.04.2015

Wetter und Klima am 26.04.2015 Holzhau im Erzgebirge (630m ü.NN)
Letzte gemessene Temperatur und Uhrzeit der Messung23:45:00 Uhr7.30 °C
Temperatur (Maximum / Höchstwert) und Uhrzeit der Messung12:45:00 Uhr18.10 °C
Temperatur (Minimum / Tiefstwert) und Uhrzeit der Messung23:45:007.30 °C
Errechneter Absolutwert der Temperaturschwankungen zwischen Tmin und Tmax des Tages10.80 K
Errechnete Tagesmitteltemperatur12.37188 °C
Gesamt - Niederschlag des Tages (in flüssiger Form)2.59 Liter / m²
Luftdruck (Maximum / Höchstwert) und Zeitpunkt der Messung00:45:00 Uhr1008.40 hPa
Luftdruck (Minimum / Tiefstwert) und Zeitpunkt der Messung23:45:00 Uhr1005.30 hPa
Errechneter Absolutwert der Luftdruckschwankungen des Tages3.10 hPa
Höchste gemessene Windgeschwindigkeit und Uhrzeit der Messung13:15:00 Uhr9.00 km/h
Errechnete Windhäufigkeit in Relation zu den Messwerten des Tages3.12500 %
Niedrigste Windkühle (Windchill) und Zeitpunkt der Messung23:45:00 Uhr7.30 °C
Taupunkt (Maximum / Höchstwert) und Uhrzeit der Messung16:30:00 Uhr12.10 °C
Taupunkt (Minimum / Tiefstwert) und Uhrzeit der Messung23:00:005.60 °C
Anzahl der automatisch eingelesenen Messwerte 96

Detaillierte Wetter- und Klima- Messwerte für den 26.04.2015 in Holzhau im Erzgebirge (630m ü.NN)
ZeitTemperaturLuftdruckRel. LuftfeuchteWindWindrichtungWindchillTaupunktNiederschlag l/m²
23:45:007.30 °C1005.30 hPa90.00 %5.80 °C2.59
23:30:007.40 °C1005.50 hPa90.00 %5.90 °C2.59
23:15:007.50 °C1005.40 hPa90.00 %6.00 °C2.59
23:00:007.30 °C1005.50 hPa89.00 %5.60 °C2.59
22:45:007.50 °C1005.30 hPa89.00 %5.80 °C2.59
22:30:007.80 °C1005.40 hPa89.00 %6.10 °C2.59
22:15:008.10 °C1005.40 hPa89.00 %6.40 °C2.59
22:00:008.30 °C1005.70 hPa89.00 %6.60 °C2.59
21:45:008.50 °C1005.60 hPa88.00 %6.60 °C2.59
21:30:008.50 °C1005.60 hPa86.00 %6.30 °C2.59
21:15:009.20 °C1005.60 hPa86.00 %7.00 °C2.59
21:00:009.50 °C1005.60 hPa85.00 %7.10 °C2.59
20:45:0010.10 °C1005.50 hPa84.00 %7.50 °C2.59
20:30:0010.80 °C1005.50 hPa83.00 %8.00 °C2.59
20:15:0011.50 °C1005.40 hPa82.00 %8.50 °C2.59
20:00:0012.30 °C1005.40 hPa80.00 %9.00 °C2.59
19:45:0013.10 °C1005.50 hPa78.00 %9.40 °C2.59
19:30:0013.80 °C1005.50 hPa77.00 %9.80 °C2.59
19:15:0014.30 °C1005.40 hPa76.00 %10.10 °C2.59
19:00:0014.80 °C1005.60 hPa75.00 %10.40 °C2.59
18:45:0015.20 °C1005.40 hPa75.00 %10.80 °C2.59
18:30:0015.90 °C1005.40 hPa73.00 %11.10 °C2.59
18:15:0016.40 °C1005.60 hPa70.00 %10.90 °C2.59
18:00:0016.80 °C1005.60 hPa70.00 %11.30 °C2.59
17:45:0016.50 °C1005.70 hPa71.00 %11.20 °C2.59
17:30:0016.80 °C1005.90 hPa72.00 %3.24 km/hSSO16.80 °C11.70 °C2.59
17:15:0016.90 °C1006.10 hPa70.00 %11.40 °C2.59
17:00:0017.30 °C1006.00 hPa70.00 %11.80 °C2.59
16:45:0017.60 °C1006.20 hPa68.00 %11.60 °C2.59
16:30:0017.40 °C1006.30 hPa71.00 %12.10 °C2.59
16:15:0016.50 °C1006.30 hPa75.00 %12.10 °C2.59
16:00:0015.50 °C1006.30 hPa80.00 %12.10 °C2.59
15:45:0013.80 °C1006.50 hPa85.00 %11.30 °C2.59
15:30:0013.40 °C1006.70 hPa86.00 %3.60 km/hSSW13.40 °C11.10 °C2.59
15:15:0013.50 °C1006.80 hPa82.00 %10.50 °C2.08
15:00:0014.10 °C1007.00 hPa80.00 %10.70 °C1.04
14:45:0013.90 °C1006.90 hPa82.00 %10.90 °C1.04
14:30:0013.30 °C1007.00 hPa85.00 %10.80 °C1.04
14:15:0012.00 °C1007.10 hPa84.00 %9.40 °C1.04
14:00:0011.60 °C1007.50 hPa80.00 %8.30 °C1.04
13:45:0011.30 °C1007.30 hPa78.00 %7.60 °C1.04
13:30:0011.90 °C1007.50 hPa73.00 %7.20 °C1.04
13:15:0015.30 °C1007.60 hPa67.00 %9.00 km/hW15.10 °C9.20 °C 
13:00:0017.50 °C1007.20 hPa60.00 %9.70 °C 
12:45:0018.10 °C1007.10 hPa61.00 %10.50 °C 
12:30:0016.40 °C1007.50 hPa66.00 %10.00 °C 
12:15:0015.40 °C1007.40 hPa65.00 %8.90 °C 
12:00:0016.30 °C1007.70 hPa62.00 %9.00 °C 
11:45:0016.40 °C1007.80 hPa63.00 %9.30 °C 
11:30:0016.30 °C1007.80 hPa63.00 %9.30 °C 
11:15:0016.00 °C1008.00 hPa65.00 %9.40 °C 
11:00:0015.60 °C1007.90 hPa66.00 %9.30 °C 
10:45:0015.40 °C1008.10 hPa67.00 %9.30 °C 
10:30:0014.90 °C1008.00 hPa69.00 %9.30 °C 
10:15:0014.40 °C1008.10 hPa69.00 %8.80 °C 
10:00:0015.10 °C1008.30 hPa70.00 %9.70 °C 
09:45:0014.30 °C1007.90 hPa72.00 %9.30 °C 
09:30:0013.90 °C1008.10 hPa73.00 %9.10 °C 
09:15:0013.30 °C1008.00 hPa75.00 %9.00 °C 
09:00:0013.30 °C1008.20 hPa75.00 %9.00 °C 
08:45:0013.40 °C1008.20 hPa76.00 %9.30 °C 
08:30:0012.90 °C1008.30 hPa79.00 %9.40 °C 
08:15:0012.10 °C1008.20 hPa81.00 %8.90 °C 
08:00:0011.80 °C1008.30 hPa83.00 %9.00 °C 
07:45:0011.80 °C1008.00 hPa83.00 %9.00 °C 
07:30:0011.10 °C1008.00 hPa84.00 %8.50 °C 
07:15:0010.60 °C1008.10 hPa84.00 %8.00 °C 
07:00:0010.50 °C1008.00 hPa85.00 %8.10 °C 
06:45:0010.30 °C1007.90 hPa85.00 %7.90 °C 
06:30:0010.10 °C1007.80 hPa85.00 %7.70 °C 
06:15:009.90 °C1007.90 hPa85.00 %7.50 °C 
06:00:009.80 °C1007.90 hPa84.00 %7.20 °C 
05:45:009.80 °C1007.80 hPa84.00 %7.20 °C 
05:30:009.90 °C1007.80 hPa83.00 %7.20 °C 
05:15:0010.10 °C1007.80 hPa82.00 %7.20 °C 
05:00:0010.30 °C1007.70 hPa82.00 %7.40 °C 
04:45:0010.40 °C1007.80 hPa83.00 %7.60 °C 
04:30:0010.40 °C1007.80 hPa83.00 %7.60 °C 
04:15:0010.30 °C1008.00 hPa82.00 %7.40 °C 
04:00:0010.20 °C1008.20 hPa82.00 %7.30 °C 
03:45:0010.10 °C1008.20 hPa82.00 %7.20 °C 
03:30:0010.10 °C1008.10 hPa82.00 %7.20 °C 
03:15:0010.10 °C1008.00 hPa82.00 %7.20 °C 
03:00:009.90 °C1008.10 hPa83.00 %7.20 °C 
02:45:009.60 °C1008.20 hPa82.00 %6.70 °C 
02:30:009.90 °C1008.10 hPa81.00 %6.80 °C 
02:15:0010.20 °C1007.90 hPa80.00 %6.90 °C 
02:00:0010.60 °C1008.20 hPa80.00 %7.30 °C 
01:45:0010.60 °C1008.20 hPa80.00 %7.30 °C 
01:30:0010.70 °C1008.30 hPa79.00 %7.20 °C 
01:15:0010.70 °C1008.20 hPa79.00 %7.20 °C 
01:00:0010.80 °C1008.20 hPa78.00 %7.10 °C 
00:45:0011.00 °C1008.40 hPa77.00 %7.10 °C 
00:30:0011.40 °C1008.40 hPa76.00 %7.30 °C 
00:15:0011.60 °C1008.40 hPa76.00 %7.50 °C 
00:00:0011.60 °C1008.30 hPa76.00 %7.50 °C 

Permanenter Link zu dieser Seite: Wetter im Erzgebirge am 26.04.2015
Performance-Info: Die Erstellung der Seite / Statistik(en) / Tabelle(n) erforderte 5 Datenbankserver-Abfrage(n) und dauerte 103 Millisekunden. (Dieser Messwert ist von der Gesamt-Auslastung des Servers abhängig.)
Erzgebirge - Wetter | Erzgebirge - Wetter (Mobilgeräte) | Komplette Klimadatenbank